sensor_id;sensor_type;location;lat;lon;timestamp;pressure;altitude;pressure_sealevel;temperature;humidity
54854;BME280;40747;49.480;8.658;2023-02-10T00:00:07;102279.88;;;-1.45;84.24
54854;BME280;40747;49.480;8.658;2023-02-10T00:02:33;102280.91;;;-1.41;83.85
54854;BME280;40747;49.480;8.658;2023-02-10T00:04:58;102274.19;;;-1.38;83.83
54854;BME280;40747;49.480;8.658;2023-02-10T00:07:23;102280.19;;;-1.39;83.65
54854;BME280;40747;49.480;8.658;2023-02-10T00:09:49;102276.25;;;-1.30;83.37
54854;BME280;40747;49.480;8.658;2023-02-10T00:12:15;102267.34;;;-1.19;83.15
54854;BME280;40747;49.480;8.658;2023-02-10T00:14:40;102277.97;;;-1.13;83.41
54854;BME280;40747;49.480;8.658;2023-02-10T00:17:05;102287.84;;;-1.40;83.54
54854;BME280;40747;49.480;8.658;2023-02-10T00:19:31;102292.84;;;-1.43;83.83
54854;BME280;40747;49.480;8.658;2023-02-10T00:21:58;102269.38;;;-1.48;84.35
54854;BME280;40747;49.480;8.658;2023-02-10T00:24:24;102299.31;;;-1.35;85.05
54854;BME280;40747;49.480;8.658;2023-02-10T00:26:49;102299.59;;;-1.47;85.13
54854;BME280;40747;49.480;8.658;2023-02-10T00:29:15;102306.63;;;-1.44;85.09
54854;BME280;40747;49.480;8.658;2023-02-10T00:31:41;102297.56;;;-1.53;85.80
54854;BME280;40747;49.480;8.658;2023-02-10T00:34:10;102309.25;;;-1.77;85.65
54854;BME280;40747;49.480;8.658;2023-02-10T00:36:36;102276.22;;;-2.00;85.61
54854;BME280;40747;49.480;8.658;2023-02-10T00:39:01;102312.69;;;-1.77;85.48
54854;BME280;40747;49.480;8.658;2023-02-10T00:41:27;102307.53;;;-1.77;85.98
54854;BME280;40747;49.480;8.658;2023-02-10T00:43:52;102313.50;;;-1.61;85.61
54854;BME280;40747;49.480;8.658;2023-02-10T00:46:19;102309.56;;;-1.71;85.54
54854;BME280;40747;49.480;8.658;2023-02-10T00:48:45;102315.94;;;-1.81;85.80
54854;BME280;40747;49.480;8.658;2023-02-10T00:51:12;102323.22;;;-1.74;85.51
54854;BME280;40747;49.480;8.658;2023-02-10T00:53:37;102324.69;;;-1.79;85.79
54854;BME280;40747;49.480;8.658;2023-02-10T00:56:03;102320.84;;;-1.69;85.79
54854;BME280;40747;49.480;8.658;2023-02-10T00:58:29;102318.78;;;-1.76;85.67
54854;BME280;40747;49.480;8.658;2023-02-10T01:00:55;102326.41;;;-1.61;85.47
54854;BME280;40747;49.480;8.658;2023-02-10T01:03:21;102314.75;;;-1.88;85.83
54854;BME280;40747;49.480;8.658;2023-02-10T01:05:46;102323.84;;;-1.94;86.63
54854;BME280;40747;49.480;8.658;2023-02-10T01:08:12;102319.06;;;-1.87;85.87
54854;BME280;40747;49.480;8.658;2023-02-10T01:10:38;102329.66;;;-1.66;86.83
54854;BME280;40747;49.480;8.658;2023-02-10T01:13:06;102319.09;;;-2.03;85.81
54854;BME280;40747;49.480;8.658;2023-02-10T01:15:32;102346.69;;;-1.86;86.21
54854;BME280;40747;49.480;8.658;2023-02-10T01:17:57;102348.22;;;-1.89;86.13
54854;BME280;40747;49.480;8.658;2023-02-10T01:20:23;102349.94;;;-1.90;86.25
54854;BME280;40747;49.480;8.658;2023-02-10T01:22:49;102344.63;;;-1.76;86.45
54854;BME280;40747;49.480;8.658;2023-02-10T01:25:14;102337.88;;;-1.73;85.67
54854;BME280;40747;49.480;8.658;2023-02-10T01:27:39;102348.06;;;-1.59;85.69
54854;BME280;40747;49.480;8.658;2023-02-10T01:30:05;102349.59;;;-1.46;84.96
54854;BME280;40747;49.480;8.658;2023-02-10T01:32:30;102357.34;;;-1.46;84.42
54854;BME280;40747;49.480;8.658;2023-02-10T01:34:56;102362.75;;;-1.42;84.35
54854;BME280;40747;49.480;8.658;2023-02-10T01:37:21;102347.66;;;-1.51;84.10
54854;BME280;40747;49.480;8.658;2023-02-10T01:39:47;102349.72;;;-1.43;84.07
54854;BME280;40747;49.480;8.658;2023-02-10T01:42:13;102364.50;;;-1.41;84.03
54854;BME280;40747;49.480;8.658;2023-02-10T01:47:04;102300.50;;;-1.79;84.12
54854;BME280;40747;49.480;8.658;2023-02-10T01:49:34;102331.03;;;-1.56;83.94
54854;BME280;40747;49.480;8.658;2023-02-10T01:52:03;102347.66;;;-1.51;84.34
54854;BME280;40747;49.480;8.658;2023-02-10T01:54:37;102351.19;;;-1.49;84.22
54854;BME280;40747;49.480;8.658;2023-02-10T01:57:04;102337.81;;;-1.91;85.03
54854;BME280;40747;49.480;8.658;2023-02-10T01:59:32;102349.53;;;-1.65;84.95
54854;BME280;40747;49.480;8.658;2023-02-10T02:02:00;102324.81;;;-1.76;84.56
54854;BME280;40747;49.480;8.658;2023-02-10T02:04:52;102358.34;;;-1.61;85.09
54854;BME280;40747;49.480;8.658;2023-02-10T02:07:20;102346.44;;;-1.57;84.58
54854;BME280;40747;49.480;8.658;2023-02-10T02:09:47;102353.69;;;-1.50;85.10
54854;BME280;40747;49.480;8.658;2023-02-10T02:15:20;102353.31;;;-1.74;84.99
54854;BME280;40747;49.480;8.658;2023-02-10T02:17:59;102351.84;;;-1.86;85.12
54854;BME280;40747;49.480;8.658;2023-02-10T02:32:22;102355.66;;;-1.95;86.50
54854;BME280;40747;49.480;8.658;2023-02-10T02:37:57;102359.78;;;-1.83;86.17
54854;BME280;40747;49.480;8.658;2023-02-10T02:40:22;102375.69;;;-1.75;86.06
54854;BME280;40747;49.480;8.658;2023-02-10T02:42:48;102369.38;;;-1.96;85.97
54854;BME280;40747;49.480;8.658;2023-02-10T02:45:21;102376.16;;;-1.99;86.39
54854;BME280;40747;49.480;8.658;2023-02-10T02:51:33;102388.66;;;-1.90;86.21
54854;BME280;40747;49.480;8.658;2023-02-10T02:53:40;102389.66;;;-1.88;85.81
54854;BME280;40747;49.480;8.658;2023-02-10T02:59:03;102403.38;;;-1.89;86.11
54854;BME280;40747;49.480;8.658;2023-02-10T03:01:45;102403.72;;;-1.83;85.62
54854;BME280;40747;49.480;8.658;2023-02-10T03:04:15;102402.16;;;-1.62;85.51
54854;BME280;40747;49.480;8.658;2023-02-10T03:06:41;102376.16;;;-1.82;85.07
54854;BME280;40747;49.480;8.658;2023-02-10T03:09:06;102392.00;;;-1.76;84.89
54854;BME280;40747;49.480;8.658;2023-02-10T03:11:32;102411.06;;;-1.74;85.01
54854;BME280;40747;49.480;8.658;2023-02-10T03:13:57;102407.66;;;-1.73;85.03
54854;BME280;40747;49.480;8.658;2023-02-10T03:16:22;102379.31;;;-1.88;85.12
54854;BME280;40747;49.480;8.658;2023-02-10T03:18:48;102409.34;;;-1.90;85.03
54854;BME280;40747;49.480;8.658;2023-02-10T03:21:13;102407.88;;;-1.85;85.94
54854;BME280;40747;49.480;8.658;2023-02-10T03:23:39;102423.38;;;-1.85;85.91
54854;BME280;40747;49.480;8.658;2023-02-10T03:26:04;102413.63;;;-1.90;85.57
54854;BME280;40747;49.480;8.658;2023-02-10T03:28:30;102410.63;;;-1.98;86.13
54854;BME280;40747;49.480;8.658;2023-02-10T03:30:55;102406.72;;;-2.06;86.85
54854;BME280;40747;49.480;8.658;2023-02-10T03:33:21;102403.72;;;-2.14;87.06
54854;BME280;40747;49.480;8.658;2023-02-10T03:35:47;102380.94;;;-2.38;87.14
54854;BME280;40747;49.480;8.658;2023-02-10T03:38:13;102392.25;;;-2.19;87.37
54854;BME280;40747;49.480;8.658;2023-02-10T03:40:39;102388.94;;;-2.17;86.88
54854;BME280;40747;49.480;8.658;2023-02-10T03:43:04;102391.16;;;-2.39;87.48
54854;BME280;40747;49.480;8.658;2023-02-10T03:45:30;102388.97;;;-2.48;88.46
54854;BME280;40747;49.480;8.658;2023-02-10T03:47:56;102393.84;;;-2.38;88.65
54854;BME280;40747;49.480;8.658;2023-02-10T03:50:21;102379.72;;;-2.28;87.89
54854;BME280;40747;49.480;8.658;2023-02-10T03:52:46;102393.78;;;-2.23;87.85
54854;BME280;40747;49.480;8.658;2023-02-10T03:55:12;102370.25;;;-2.44;87.67
54854;BME280;40747;49.480;8.658;2023-02-10T03:57:40;102392.19;;;-2.21;87.69
54854;BME280;40747;49.480;8.658;2023-02-10T04:00:06;102377.00;;;-2.31;87.30
54854;BME280;40747;49.480;8.658;2023-02-10T04:02:32;102395.56;;;-2.22;87.50
54854;BME280;40747;49.480;8.658;2023-02-10T04:04:57;102405.72;;;-2.25;87.00
54854;BME280;40747;49.480;8.658;2023-02-10T04:07:22;102404.28;;;-2.20;87.78
54854;BME280;40747;49.480;8.658;2023-02-10T04:09:47;102378.16;;;-2.41;87.30
54854;BME280;40747;49.480;8.658;2023-02-10T04:12:13;102404.91;;;-2.24;87.18
54854;BME280;40747;49.480;8.658;2023-02-10T04:14:38;102406.69;;;-2.23;87.29
54854;BME280;40747;49.480;8.658;2023-02-10T04:17:03;102381.97;;;-2.34;87.30
54854;BME280;40747;49.480;8.658;2023-02-10T04:19:29;102405.03;;;-2.37;87.57
54854;BME280;40747;49.480;8.658;2023-02-10T04:21:54;102416.16;;;-2.38;88.05
54854;BME280;40747;49.480;8.658;2023-02-10T04:24:19;102417.25;;;-2.50;87.86
54854;BME280;40747;49.480;8.658;2023-02-10T04:26:45;102412.63;;;-2.40;87.65
54854;BME280;40747;49.480;8.658;2023-02-10T04:29:10;102410.91;;;-2.40;88.50
54854;BME280;40747;49.480;8.658;2023-02-10T04:31:35;102421.41;;;-2.37;88.75
54854;BME280;40747;49.480;8.658;2023-02-10T04:34:00;102427.81;;;-2.30;88.33
54854;BME280;40747;49.480;8.658;2023-02-10T04:36:26;102426.47;;;-2.38;88.33
54854;BME280;40747;49.480;8.658;2023-02-10T04:38:51;102430.34;;;-2.47;88.36
54854;BME280;40747;49.480;8.658;2023-02-10T04:41:17;102423.03;;;-2.39;87.71
54854;BME280;40747;49.480;8.658;2023-02-10T04:43:42;102434.06;;;-2.41;88.12
54854;BME280;40747;49.480;8.658;2023-02-10T04:46:07;102437.00;;;-2.35;88.15
54854;BME280;40747;49.480;8.658;2023-02-10T04:48:33;102440.97;;;-2.25;87.69
54854;BME280;40747;49.480;8.658;2023-02-10T04:51:00;102447.41;;;-2.34;87.66
54854;BME280;40747;49.480;8.658;2023-02-10T04:53:25;102413.88;;;-2.64;87.94
54854;BME280;40747;49.480;8.658;2023-02-10T04:55:50;102450.50;;;-2.39;88.27
54854;BME280;40747;49.480;8.658;2023-02-10T04:58:16;102422.03;;;-2.41;88.00
54854;BME280;40747;49.480;8.658;2023-02-10T05:00:41;102452.50;;;-2.19;87.57
54854;BME280;40747;49.480;8.658;2023-02-10T05:03:06;102451.56;;;-2.36;87.52
54854;BME280;40747;49.480;8.658;2023-02-10T05:05:31;102452.28;;;-2.38;87.34
54854;BME280;40747;49.480;8.658;2023-02-10T05:07:57;102453.72;;;-2.43;88.34
54854;BME280;40747;49.480;8.658;2023-02-10T05:10:22;102455.94;;;-2.50;88.21
54854;BME280;40747;49.480;8.658;2023-02-10T05:12:48;102454.53;;;-2.44;88.30
54854;BME280;40747;49.480;8.658;2023-02-10T05:15:13;102457.47;;;-2.53;87.76
54854;BME280;40747;49.480;8.658;2023-02-10T05:17:39;102460.94;;;-2.53;88.85
54854;BME280;40747;49.480;8.658;2023-02-10T05:20:05;102441.38;;;-2.64;88.58
54854;BME280;40747;49.480;8.658;2023-02-10T05:22:31;102442.97;;;-2.66;88.31
54854;BME280;40747;49.480;8.658;2023-02-10T05:24:57;102436.66;;;-2.71;88.26
54854;BME280;40747;49.480;8.658;2023-02-10T05:27:24;102468.78;;;-2.36;88.08
54854;BME280;40747;49.480;8.658;2023-02-10T05:29:49;102475.19;;;-2.59;87.93
54854;BME280;40747;49.480;8.658;2023-02-10T05:32:15;102478.66;;;-2.59;88.89
54854;BME280;40747;49.480;8.658;2023-02-10T05:34:40;102476.00;;;-2.60;89.01
54854;BME280;40747;49.480;8.658;2023-02-10T05:37:05;102476.94;;;-2.58;89.04
54854;BME280;40747;49.480;8.658;2023-02-10T05:39:31;102473.22;;;-2.64;89.33
54854;BME280;40747;49.480;8.658;2023-02-10T05:41:57;102467.81;;;-2.68;89.01
54854;BME280;40747;49.480;8.658;2023-02-10T05:44:24;102467.09;;;-2.66;90.14
54854;BME280;40747;49.480;8.658;2023-02-10T05:46:51;102467.44;;;-2.44;89.49
54854;BME280;40747;49.480;8.658;2023-02-10T05:49:17;102455.53;;;-2.72;89.57
54854;BME280;40747;49.480;8.658;2023-02-10T05:51:42;102475.78;;;-2.64;89.10
54854;BME280;40747;49.480;8.658;2023-02-10T05:54:08;102476.31;;;-2.39;89.29
54854;BME280;40747;49.480;8.658;2023-02-10T05:56:34;102447.34;;;-2.50;88.40
54854;BME280;40747;49.480;8.658;2023-02-10T05:58:59;102452.28;;;-2.38;88.35
54854;BME280;40747;49.480;8.658;2023-02-10T06:01:24;102486.19;;;-2.17;88.12
54854;BME280;40747;49.480;8.658;2023-02-10T06:03:50;102493.22;;;-2.15;87.40
54854;BME280;40747;49.480;8.658;2023-02-10T06:06:15;102501.63;;;-2.02;87.26
54854;BME280;40747;49.480;8.658;2023-02-10T06:08:41;102483.25;;;-2.08;86.78
54854;BME280;40747;49.480;8.658;2023-02-10T06:11:10;102488.66;;;-2.04;86.68
54854;BME280;40747;49.480;8.658;2023-02-10T06:13:37;102488.53;;;-1.90;86.13
54854;BME280;40747;49.480;8.658;2023-02-10T06:16:03;102519.03;;;-1.68;85.73
54854;BME280;40747;49.480;8.658;2023-02-10T06:18:29;102525.31;;;-1.63;86.20
54854;BME280;40747;49.480;8.658;2023-02-10T06:20:55;102523.81;;;-1.59;85.31
54854;BME280;40747;49.480;8.658;2023-02-10T06:23:21;102507.69;;;-1.70;84.94
54854;BME280;40747;49.480;8.658;2023-02-10T06:25:47;102523.88;;;-1.58;84.71
54854;BME280;40747;49.480;8.658;2023-02-10T06:28:12;102498.69;;;-1.93;85.46
54854;BME280;40747;49.480;8.658;2023-02-10T06:30:40;102529.91;;;-1.74;85.23
54854;BME280;40747;49.480;8.658;2023-02-10T06:33:05;102517.44;;;-1.81;85.38
54854;BME280;40747;49.480;8.658;2023-02-10T06:35:30;102518.25;;;-1.82;85.53
54854;BME280;40747;49.480;8.658;2023-02-10T06:37:56;102523.72;;;-2.07;85.89
54854;BME280;40747;49.480;8.658;2023-02-10T06:40:21;102513.69;;;-2.18;86.59
54854;BME280;40747;49.480;8.658;2023-02-10T06:42:47;102506.56;;;-2.07;87.33
54854;BME280;40747;49.480;8.658;2023-02-10T06:45:12;102491.72;;;-2.26;87.31
54854;BME280;40747;49.480;8.658;2023-02-10T06:47:38;102519.97;;;-1.98;87.03
54854;BME280;40747;49.480;8.658;2023-02-10T06:50:03;102525.50;;;-1.91;86.76
54854;BME280;40747;49.480;8.658;2023-02-10T06:52:29;102496.41;;;-2.19;87.44
54854;BME280;40747;49.480;8.658;2023-02-10T06:54:55;102517.13;;;-2.02;86.99
54854;BME280;40747;49.480;8.658;2023-02-10T06:57:20;102521.06;;;-1.94;87.93
54854;BME280;40747;49.480;8.658;2023-02-10T06:59:45;102524.94;;;-1.86;87.99
54854;BME280;40747;49.480;8.658;2023-02-10T07:02:11;102531.38;;;-1.94;87.68
54854;BME280;40747;49.480;8.658;2023-02-10T07:04:37;102522.28;;;-2.02;87.76
54854;BME280;40747;49.480;8.658;2023-02-10T07:07:04;102528.88;;;-1.92;87.76
54854;BME280;40747;49.480;8.658;2023-02-10T07:09:30;102526.94;;;-2.11;87.32
54854;BME280;40747;49.480;8.658;2023-02-10T07:11:57;102487.09;;;-2.32;88.43
54854;BME280;40747;49.480;8.658;2023-02-10T07:14:22;102526.66;;;-2.01;88.20
54854;BME280;40747;49.480;8.658;2023-02-10T07:16:47;102531.13;;;-1.99;87.71
54854;BME280;40747;49.480;8.658;2023-02-10T07:19:13;102513.75;;;-2.01;88.51
54854;BME280;40747;49.480;8.658;2023-02-10T07:21:38;102512.88;;;-2.02;88.23
54854;BME280;40747;49.480;8.658;2023-02-10T07:24:04;102538.50;;;-2.05;87.81
54854;BME280;40747;49.480;8.658;2023-02-10T07:26:29;102538.69;;;-2.02;88.27
54854;BME280;40747;49.480;8.658;2023-02-10T07:28:54;102521.06;;;-1.94;88.01
54854;BME280;40747;49.480;8.658;2023-02-10T07:31:20;102528.28;;;-2.03;87.98
54854;BME280;40747;49.480;8.658;2023-02-10T07:33:45;102533.47;;;-2.03;88.54
54854;BME280;40747;49.480;8.658;2023-02-10T07:36:11;102537.78;;;-2.02;88.31
54854;BME280;40747;49.480;8.658;2023-02-10T07:38:36;102535.28;;;-1.86;88.36
54854;BME280;40747;49.480;8.658;2023-02-10T07:41:03;102527.41;;;-1.72;87.63
54854;BME280;40747;49.480;8.658;2023-02-10T07:43:29;102530.78;;;-1.73;88.03
54854;BME280;40747;49.480;8.658;2023-02-10T07:45:54;102531.09;;;-1.84;87.70
54854;BME280;40747;49.480;8.658;2023-02-10T07:48:20;102520.53;;;-2.03;88.39
54854;BME280;40747;49.480;8.658;2023-02-10T07:50:47;102525.84;;;-1.85;88.73
54854;BME280;40747;49.480;8.658;2023-02-10T07:53:12;102523.63;;;-1.62;88.45
54854;BME280;40747;49.480;8.658;2023-02-10T07:55:38;102523.88;;;-1.58;87.75
54854;BME280;40747;49.480;8.658;2023-02-10T07:58:06;102508.72;;;-1.52;87.51
54854;BME280;40747;49.480;8.658;2023-02-10T08:00:33;102531.50;;;-1.28;87.83
54854;BME280;40747;49.480;8.658;2023-02-10T08:02:58;102531.19;;;-1.34;88.37
54854;BME280;40747;49.480;8.658;2023-02-10T08:05:24;102529.91;;;-1.26;87.95
54854;BME280;40747;49.480;8.658;2023-02-10T08:07:49;102524.81;;;-1.24;88.77
54854;BME280;40747;49.480;8.658;2023-02-10T08:10:15;102507.81;;;-1.36;89.38
54854;BME280;40747;49.480;8.658;2023-02-10T08:12:40;102528.03;;;-1.28;89.89
54854;BME280;40747;49.480;8.658;2023-02-10T08:15:07;102539.91;;;-1.32;90.24
54854;BME280;40747;49.480;8.658;2023-02-10T08:17:33;102512.16;;;-1.51;90.40
54854;BME280;40747;49.480;8.658;2023-02-10T08:19:58;102538.31;;;-1.30;90.53
54854;BME280;40747;49.480;8.658;2023-02-10T08:22:24;102541.22;;;-1.24;91.08
54854;BME280;40747;49.480;8.658;2023-02-10T08:24:49;102547.69;;;-1.16;91.03
54854;BME280;40747;49.480;8.658;2023-02-10T08:27:15;102548.88;;;-1.09;90.67
54854;BME280;40747;49.480;8.658;2023-02-10T08:29:40;102543.91;;;-1.06;91.19
54854;BME280;40747;49.480;8.658;2023-02-10T08:32:05;102518.44;;;-1.14;91.41
54854;BME280;40747;49.480;8.658;2023-02-10T08:34:31;102548.41;;;-1.02;91.03
54854;BME280;40747;49.480;8.658;2023-02-10T08:36:56;102553.59;;;-0.85;90.61
54854;BME280;40747;49.480;8.658;2023-02-10T08:39:22;102546.09;;;-0.80;90.45
54854;BME280;40747;49.480;8.658;2023-02-10T08:41:47;102550.28;;;-0.83;90.41
54854;BME280;40747;49.480;8.658;2023-02-10T08:44:13;102551.25;;;-0.80;89.84
54854;BME280;40747;49.480;8.658;2023-02-10T08:46:39;102546.22;;;-0.77;90.18
54854;BME280;40747;49.480;8.658;2023-02-10T08:49:04;102559.94;;;-0.62;89.95
54854;BME280;40747;49.480;8.658;2023-02-10T08:51:30;102554.81;;;-0.44;89.73
54854;BME280;40747;49.480;8.658;2023-02-10T08:53:57;102553.13;;;-0.43;89.29
54854;BME280;40747;49.480;8.658;2023-02-10T08:56:24;102552.19;;;-0.27;89.47
54854;BME280;40747;49.480;8.658;2023-02-10T08:58:50;102553.19;;;-0.07;88.75
54854;BME280;40747;49.480;8.658;2023-02-10T09:01:19;102558.50;;;-0.04;88.14
54854;BME280;40747;49.480;8.658;2023-02-10T09:03:45;102532.00;;;-0.17;87.63
54854;BME280;40747;49.480;8.658;2023-02-10T09:06:17;102551.03;;;0.02;87.33
54854;BME280;40747;49.480;8.658;2023-02-10T09:08:43;102544.81;;;0.16;86.65
54854;BME280;40747;49.480;8.658;2023-02-10T09:11:13;102562.25;;;0.57;85.86
54854;BME280;40747;49.480;8.658;2023-02-10T09:13:38;102564.41;;;0.85;83.73
54854;BME280;40747;49.480;8.658;2023-02-10T09:16:04;102547.00;;;0.82;82.91
54854;BME280;40747;49.480;8.658;2023-02-10T09:18:29;102575.75;;;1.26;83.31
54854;BME280;40747;49.480;8.658;2023-02-10T09:20:57;102567.34;;;1.32;82.07
54854;BME280;40747;49.480;8.658;2023-02-10T09:23:22;102550.69;;;1.48;81.54
54854;BME280;40747;49.480;8.658;2023-02-10T09:25:55;102576.72;;;2.11;80.53
54854;BME280;40747;49.480;8.658;2023-02-10T09:28:21;102590.34;;;2.50;78.69
54854;BME280;40747;49.480;8.658;2023-02-10T09:30:47;102590.72;;;2.59;77.81
54854;BME280;40747;49.480;8.658;2023-02-10T09:33:14;102596.31;;;2.70;76.96
54854;BME280;40747;49.480;8.658;2023-02-10T09:35:40;102595.34;;;2.66;75.54
54854;BME280;40747;49.480;8.658;2023-02-10T09:38:06;102591.06;;;2.68;76.24
54854;BME280;40747;49.480;8.658;2023-02-10T09:40:34;102591.53;;;2.81;75.77
54854;BME280;40747;49.480;8.658;2023-02-10T09:43:14;102594.44;;;3.13;75.02
54854;BME280;40747;49.480;8.658;2023-02-10T09:45:42;102599.06;;;3.20;73.60
54854;BME280;40747;49.480;8.658;2023-02-10T09:48:36;102566.50;;;3.57;74.26
54854;BME280;40747;49.480;8.658;2023-02-10T09:51:08;102581.00;;;4.29;71.78
54854;BME280;40747;49.480;8.658;2023-02-10T09:53:39;102580.56;;;4.71;68.80
54854;BME280;40747;49.480;8.658;2023-02-10T09:56:14;102581.56;;;4.76;68.12
54854;BME280;40747;49.480;8.658;2023-02-10T09:58:49;102588.88;;;4.58;68.24
54854;BME280;40747;49.480;8.658;2023-02-10T10:01:43;102591.56;;;4.61;67.85
54854;BME280;40747;49.480;8.658;2023-02-10T10:04:18;102585.09;;;4.48;66.95
54854;BME280;40747;49.480;8.658;2023-02-10T10:06:51;102579.97;;;3.97;67.72
54854;BME280;40747;49.480;8.658;2023-02-10T10:09:35;102590.34;;;3.95;67.80
54854;BME280;40747;49.480;8.658;2023-02-10T10:12:04;102582.50;;;4.21;66.17
54854;BME280;40747;49.480;8.658;2023-02-10T10:14:37;102582.91;;;4.35;66.50
54854;BME280;40747;49.480;8.658;2023-02-10T10:17:58;102584.53;;;4.58;65.08
54854;BME280;40747;49.480;8.658;2023-02-10T10:24:09;102577.16;;;4.18;68.36
54854;BME280;40747;49.480;8.658;2023-02-10T10:26:10;102576.53;;;4.25;65.49
54854;BME280;40747;49.480;8.658;2023-02-10T10:31:15;102572.06;;;4.21;65.64
54854;BME280;40747;49.480;8.658;2023-02-10T10:33:52;102574.53;;;4.16;65.28
54854;BME280;40747;49.480;8.658;2023-02-10T10:41:53;102556.06;;;4.10;65.16
54854;BME280;40747;49.480;8.658;2023-02-10T10:44:19;102581.66;;;3.69;66.94
54854;BME280;40747;49.480;8.658;2023-02-10T10:46:52;102579.16;;;3.22;68.46
54854;BME280;40747;49.480;8.658;2023-02-10T10:49:24;102581.59;;;2.93;69.38
54854;BME280;40747;49.480;8.658;2023-02-10T10:51:49;102557.69;;;2.81;70.03
54854;BME280;40747;49.480;8.658;2023-02-10T10:54:17;102582.31;;;3.13;70.71
54854;BME280;40747;49.480;8.658;2023-02-10T10:57:03;102555.75;;;2.99;70.11
54854;BME280;40747;49.480;8.658;2023-02-10T10:59:41;102570.44;;;3.46;69.84
54854;BME280;40747;49.480;8.658;2023-02-10T11:02:19;102543.97;;;3.59;69.47
54854;BME280;40747;49.480;8.658;2023-02-10T11:04:45;102573.09;;;3.73;68.92
54854;BME280;40747;49.480;8.658;2023-02-10T11:07:17;102573.28;;;3.52;69.58
54854;BME280;40747;49.480;8.658;2023-02-10T11:09:52;102580.47;;;3.10;70.41
54854;BME280;40747;49.480;8.658;2023-02-10T11:12:24;102566.28;;;3.51;70.35
54854;BME280;40747;49.480;8.658;2023-02-10T11:14:52;102561.97;;;3.53;69.75
54854;BME280;40747;49.480;8.658;2023-02-10T11:17:34;102565.97;;;3.17;71.09
54854;BME280;40747;49.480;8.658;2023-02-10T11:20:04;102558.28;;;3.46;70.15
54854;BME280;40747;49.480;8.658;2023-02-10T11:22:30;102561.72;;;3.45;70.83
54854;BME280;40747;49.480;8.658;2023-02-10T11:24:58;102563.16;;;3.61;70.49
54854;BME280;40747;49.480;8.658;2023-02-10T11:27:24;102562.09;;;3.30;70.90
54854;BME280;40747;49.480;8.658;2023-02-10T11:29:55;102550.59;;;3.49;69.13
54854;BME280;40747;49.480;8.658;2023-02-10T11:32:28;102552.69;;;3.59;69.30
54854;BME280;40747;49.480;8.658;2023-02-10T11:34:56;102549.03;;;3.54;70.48
54854;BME280;40747;49.480;8.658;2023-02-10T11:37:34;102539.25;;;3.23;71.38
54854;BME280;40747;49.480;8.658;2023-02-10T11:40:04;102554.69;;;3.42;71.84
54854;BME280;40747;49.480;8.658;2023-02-10T11:42:32;102541.78;;;3.46;72.32
54854;BME280;40747;49.480;8.658;2023-02-10T11:45:03;102535.88;;;3.51;70.95
54854;BME280;40747;49.480;8.658;2023-02-10T11:47:40;102531.25;;;3.18;72.05
54854;BME280;40747;49.480;8.658;2023-02-10T11:50:20;102539.78;;;3.38;72.44
54854;BME280;40747;49.480;8.658;2023-02-10T11:52:46;102529.38;;;3.14;73.36
54854;BME280;40747;49.480;8.658;2023-02-10T11:55:12;102532.22;;;3.46;73.43
54854;BME280;40747;49.480;8.658;2023-02-10T11:58:02;102527.81;;;3.43;73.33
54854;BME280;40747;49.480;8.658;2023-02-10T12:00:50;102525.94;;;3.65;72.92
54854;BME280;40747;49.480;8.658;2023-02-10T12:03:34;102515.69;;;3.44;73.30
54854;BME280;40747;49.480;8.658;2023-02-10T12:06:16;102503.88;;;3.55;73.15
54854;BME280;40747;49.480;8.658;2023-02-10T12:14:31;102495.53;;;3.66;72.64
54854;BME280;40747;49.480;8.658;2023-02-10T12:17:27;102507.44;;;3.85;72.73
54854;BME280;40747;49.480;8.658;2023-02-10T12:25:52;102506.50;;;4.10;72.29
54854;BME280;40747;49.480;8.658;2023-02-10T12:28:40;102499.75;;;4.17;72.51
54854;BME280;40747;49.480;8.658;2023-02-10T12:31:36;102517.63;;;4.33;70.72
54854;BME280;40747;49.480;8.658;2023-02-10T12:42:50;102474.06;;;4.31;68.87
54854;BME280;40747;49.480;8.658;2023-02-10T12:53:41;102473.69;;;4.47;68.55
54854;BME280;40747;49.480;8.658;2023-02-10T12:58:46;102489.53;;;4.53;68.71
54854;BME280;40747;49.480;8.658;2023-02-10T13:01:22;102492.22;;;4.56;69.75
54854;BME280;40747;49.480;8.658;2023-02-10T13:03:54;102484.97;;;4.16;69.60
54854;BME280;40747;49.480;8.658;2023-02-10T13:06:35;102487.59;;;4.17;70.67
54854;BME280;40747;49.480;8.658;2023-02-10T13:09:17;102467.59;;;4.18;70.83
54854;BME280;40747;49.480;8.658;2023-02-10T13:12:15;102471.63;;;4.35;69.90
54854;BME280;40747;49.480;8.658;2023-02-10T13:14:45;102486.06;;;4.53;70.13
54854;BME280;40747;49.480;8.658;2023-02-10T13:17:11;102480.47;;;4.40;69.53
54854;BME280;40747;49.480;8.658;2023-02-10T13:19:55;102485.06;;;4.49;69.86
54854;BME280;40747;49.480;8.658;2023-02-10T13:22:41;102483.88;;;4.38;70.53
54854;BME280;40747;49.480;8.658;2023-02-10T13:25:11;102489.56;;;4.85;69.97
54854;BME280;40747;49.480;8.658;2023-02-10T13:27:59;102483.41;;;5.15;67.24
54854;BME280;40747;49.480;8.658;2023-02-10T13:31:05;102474.28;;;5.33;67.27
54854;BME280;40747;49.480;8.658;2023-02-10T13:33:54;102476.84;;;5.31;67.73
54854;BME280;40747;49.480;8.658;2023-02-10T13:36:26;102475.72;;;4.88;68.06
54854;BME280;40747;49.480;8.658;2023-02-10T13:39:20;102482.59;;;5.18;66.81
54854;BME280;40747;49.480;8.658;2023-02-10T13:41:45;102469.88;;;5.32;66.65
54854;BME280;40747;49.480;8.658;2023-02-10T13:44:25;102480.03;;;5.53;66.21
54854;BME280;40747;49.480;8.658;2023-02-10T13:46:55;102480.34;;;5.65;65.42
54854;BME280;40747;49.480;8.658;2023-02-10T13:49:22;102483.84;;;5.67;63.01
54854;BME280;40747;49.480;8.658;2023-02-10T13:51:49;102485.13;;;5.83;64.15
54854;BME280;40747;49.480;8.658;2023-02-10T13:54:30;102477.09;;;5.76;63.48
54854;BME280;40747;49.480;8.658;2023-02-10T13:56:58;102444.38;;;5.21;64.08
54854;BME280;40747;49.480;8.658;2023-02-10T13:59:44;102474.31;;;5.69;65.08
54854;BME280;40747;49.480;8.658;2023-02-10T14:02:21;102473.19;;;5.95;65.62
54854;BME280;40747;49.480;8.658;2023-02-10T14:04:52;102471.78;;;5.72;64.10
54854;BME280;40747;49.480;8.658;2023-02-10T14:12:31;102466.91;;;5.51;65.42
54854;BME280;40747;49.480;8.658;2023-02-10T14:15:17;102470.28;;;5.47;65.55